Time;durP1;ratioP1;P1;durP2;ratioP2;P2;SDS_P1;SDS_P2;PMS_P1;PMS_P2;Temp;Humidity;BMP_temperature;BMP_pressure;BME280_temperature;BME280_humidity;BME280_pressure;Samples;Min_cycle;Max_cycle;Signal;HPM_P1;HPM_P2
2021/05/25 00:00:10;;;;;;;1.47;0.60;;;12.40;93.00;;;;;;5012386;28;20652;-48
2021/05/25 00:02:36;;;;;;;1.87;1.50;;;12.20;92.40;;;;;;5003153;28;20652;-49
2021/05/25 00:05:04;;;;;;;2.50;1.00;;;12.10;92.40;;;;;;5013045;28;20717;-49
2021/05/25 00:07:31;;;;;;;1.10;0.57;;;12.10;92.50;;;;;;5012330;28;20676;-48
2021/05/25 00:09:58;;;;;;;4.60;1.00;;;12.00;92.10;;;;;;5012497;28;20766;-48
2021/05/25 00:12:24;;;;;;;1.63;1.20;;;12.00;92.10;;;;;;5012206;28;20679;-47
2021/05/25 00:14:51;;;;;;;1.60;0.93;;;12.00;92.20;;;;;;5011835;28;20670;-48
2021/05/25 00:17:18;;;;;;;1.93;0.93;;;12.10;92.10;;;;;;5011428;28;20647;-49
2021/05/25 00:19:45;;;;;;;1.30;0.90;;;11.90;91.90;;;;;;5011781;28;20622;-49
2021/05/25 00:22:13;;;;;;;0.77;0.77;;;12.00;91.80;;;;;;5011575;28;21134;-49
2021/05/25 00:24:40;;;;;;;4.67;1.50;;;11.90;91.50;;;;;;5011286;28;20662;-46
2021/05/25 00:27:07;;;;;;;2.27;1.00;;;11.80;91.50;;;;;;5011747;28;20653;-49
2021/05/25 00:29:34;;;;;;;1.53;0.70;;;11.90;91.50;;;;;;5011348;28;20694;-49
2021/05/25 00:32:01;;;;;;;1.00;0.80;;;11.90;91.60;;;;;;5011492;28;20658;-49
2021/05/25 00:34:27;;;;;;;1.63;0.93;;;11.90;91.60;;;;;;5011264;28;20763;-46
2021/05/25 00:36:54;;;;;;;1.80;0.83;;;12.00;91.60;;;;;;5011407;28;20705;-49
2021/05/25 00:39:21;;;;;;;1.20;0.90;;;12.00;91.60;;;;;;5011180;28;20632;-49
2021/05/25 00:41:48;;;;;;;2.43;0.90;;;12.00;92.00;;;;;;5011152;28;20648;-49
2021/05/25 00:44:15;;;;;;;1.63;0.83;;;12.00;91.60;;;;;;5011301;28;20640;-48
2021/05/25 00:46:42;;;;;;;1.00;0.70;;;12.00;91.50;;;;;;5011670;28;20652;-49
2021/05/25 00:49:09;;;;;;;1.27;0.90;;;11.90;91.30;;;;;;5011044;28;20726;-48
2021/05/25 00:51:36;;;;;;;1.23;1.23;;;11.80;91.40;;;;;;5010350;28;20666;-48
2021/05/25 00:54:03;;;;;;;2.10;1.20;;;11.90;91.30;;;;;;5010547;28;20763;-48
2021/05/25 00:56:30;;;;;;;2.80;1.10;;;11.90;91.20;;;;;;5011922;28;20666;-49
2021/05/25 00:58:57;;;;;;;1.37;0.80;;;12.00;91.00;;;;;;5009306;28;20794;-49
2021/05/25 01:01:24;;;;;;;1.00;0.80;;;12.00;91.00;;;;;;5010733;28;20659;-49
2021/05/25 01:03:51;;;;;;;2.87;0.93;;;12.00;90.90;;;;;;5010435;28;21188;-49
2021/05/25 01:06:18;;;;;;;4.00;0.83;;;12.00;90.90;;;;;;5010530;28;20725;-47
2021/05/25 01:08:44;;;;;;;1.10;0.80;;;12.10;90.90;;;;;;5010024;28;20695;-46
2021/05/25 01:11:13;;;;;;;1.07;0.83;;;12.20;90.90;;;;;;5009841;28;20682;-46
2021/05/25 01:13:44;;;;;;;0.50;0.50;;;12.20;90.70;;;;;;5010345;28;20666;-46
2021/05/25 01:16:12;;;;;;;2.30;1.43;;;12.20;90.60;;;;;;5010642;28;20703;-47
2021/05/25 01:18:39;;;;;;;1.00;0.90;;;12.30;90.90;;;;;;5010162;28;20628;-47
2021/05/25 01:21:06;;;;;;;4.13;0.90;;;12.30;90.60;;;;;;5010512;28;20643;-47
2021/05/25 01:23:34;;;;;;;1.90;0.90;;;12.20;90.60;;;;;;5010242;28;20635;-47
2021/05/25 01:26:01;;;;;;;3.63;0.90;;;12.30;90.70;;;;;;5010117;28;20684;-47
2021/05/25 01:28:28;;;;;;;1.70;1.10;;;12.40;90.70;;;;;;5010291;28;20694;-47
2021/05/25 01:30:55;;;;;;;0.83;0.83;;;12.40;90.60;;;;;;5010110;28;20739;-47
2021/05/25 01:33:23;;;;;;;2.23;1.00;;;12.50;90.50;;;;;;5009864;28;20680;-47
2021/05/25 01:35:50;;;;;;;1.43;1.10;;;12.40;90.30;;;;;;5010219;28;20698;-47
2021/05/25 01:38:16;;;;;;;1.47;0.90;;;12.40;90.20;;;;;;5010085;28;20713;-47
2021/05/25 01:40:44;;;;;;;1.87;0.70;;;12.40;90.00;;;;;;5009997;28;21044;-47
2021/05/25 01:43:11;;;;;;;1.20;0.93;;;12.30;89.20;;;;;;5010558;28;20659;-47
2021/05/25 01:45:38;;;;;;;2.67;0.43;;;12.20;89.70;;;;;;5009591;28;20694;-47
2021/05/25 01:48:07;;;;;;;2.20;1.10;;;12.20;89.70;;;;;;5009997;28;20695;-47
2021/05/25 01:50:34;;;;;;;4.30;1.23;;;12.20;89.80;;;;;;5009044;28;21004;-47
2021/05/25 01:53:03;;;;;;;1.33;0.70;;;12.10;89.70;;;;;;5010569;28;20628;-48
2021/05/25 01:55:32;;;;;;;2.87;0.97;;;12.10;89.70;;;;;;5009723;28;20719;-47
2021/05/25 01:58:01;;;;;;;1.33;0.60;;;12.10;90.00;;;;;;5009659;28;20994;-47
2021/05/25 02:00:27;;;;;;;1.27;0.87;;;12.20;90.00;;;;;;5010046;28;21045;-47
2021/05/25 02:02:54;;;;;;;1.33;0.73;;;12.10;89.80;;;;;;5010093;28;20654;-47
2021/05/25 02:05:21;;;;;;;1.23;0.83;;;12.10;89.60;;;;;;5010023;28;20659;-47
2021/05/25 02:07:49;;;;;;;2.80;1.27;;;12.00;89.70;;;;;;5009790;28;20627;-47
2021/05/25 02:10:23;;;;;;;1.63;0.90;;;12.10;90.00;;;;;;5010115;28;20635;-47
2021/05/25 02:12:50;;;;;;;0.80;0.70;;;12.10;89.70;;;;;;5010127;28;20753;-48
2021/05/25 02:15:17;;;;;;;1.50;0.87;;;12.00;89.20;;;;;;5009586;28;21062;-48
2021/05/25 02:17:44;;;;;;;0.87;0.77;;;12.00;89.70;;;;;;5009530;28;20673;-48
2021/05/25 02:20:11;;;;;;;2.00;1.17;;;12.00;89.50;;;;;;5009819;28;20690;-47
2021/05/25 02:22:38;;;;;;;0.90;0.60;;;12.00;89.10;;;;;;5010117;28;20666;-47
2021/05/25 02:25:05;;;;;;;1.63;1.20;;;11.90;89.20;;;;;;5008859;28;20655;-47
2021/05/25 02:27:32;;;;;;;1.23;0.90;;;12.00;89.60;;;;;;5009217;28;20662;-47
2021/05/25 02:29:59;;;;;;;3.10;2.07;;;12.00;89.60;;;;;;5009286;28;20722;-47
2021/05/25 02:32:27;;;;;;;2.90;0.93;;;11.90;89.20;;;;;;5010038;28;20675;-47
2021/05/25 02:34:55;;;;;;;1.20;0.90;;;11.80;89.60;;;;;;5008937;28;21185;-48
2021/05/25 02:37:21;;;;;;;0.77;0.57;;;11.80;90.10;;;;;;5009475;28;20670;-48
2021/05/25 02:39:48;;;;;;;1.80;0.80;;;11.70;90.20;;;;;;5009275;28;20678;-47
2021/05/25 02:42:15;;;;;;;1.23;0.80;;;11.70;90.10;;;;;;5009957;28;21192;-48
2021/05/25 02:44:42;;;;;;;0.90;0.90;;;11.80;90.00;;;;;;5008943;28;20668;-48
2021/05/25 02:47:08;;;;;;;1.73;0.80;;;11.80;89.80;;;;;;5009416;28;20963;-48
2021/05/25 02:49:36;;;;;;;6.33;0.80;;;11.80;89.70;;;;;;5009285;28;20684;-46
2021/05/25 02:52:03;;;;;;;2.47;1.00;;;11.80;89.90;;;;;;5009404;28;20664;-46
2021/05/25 02:54:29;;;;;;;1.73;0.80;;;11.90;89.80;;;;;;5008986;28;20652;-47
2021/05/25 02:56:56;;;;;;;2.97;1.07;;;11.90;89.40;;;;;;5009730;28;20752;-47
2021/05/25 02:59:26;;;;;;;1.20;0.80;;;12.00;88.90;;;;;;5009343;28;20728;-47
2021/05/25 03:01:53;;;;;;;1.37;0.73;;;12.00;88.90;;;;;;5009390;28;20658;-47
2021/05/25 03:04:19;;;;;;;4.23;1.10;;;12.00;88.00;;;;;;5009199;28;20668;-47
2021/05/25 03:06:47;;;;;;;0.70;0.70;;;12.00;87.80;;;;;;5008964;28;21084;-47
2021/05/25 03:09:14;;;;;;;1.80;0.80;;;11.90;88.00;;;;;;5008736;28;20693;-47
2021/05/25 03:11:40;;;;;;;1.00;0.70;;;11.80;88.20;;;;;;5009449;28;20663;-47
2021/05/25 03:14:07;;;;;;;1.17;1.07;;;11.70;87.60;;;;;;5009129;28;20742;-47
2021/05/25 03:16:34;;;;;;;0.60;0.60;;;11.70;87.90;;;;;;5008975;28;21025;-48
2021/05/25 03:19:00;;;;;;;2.10;0.90;;;11.70;88.00;;;;;;5008817;28;20678;-49
2021/05/25 03:21:27;;;;;;;1.93;1.10;;;11.80;88.10;;;;;;5009659;28;20659;-48
2021/05/25 03:23:55;;;;;;;1.00;0.70;;;11.80;87.60;;;;;;5012213;28;20785;-48
2021/05/25 03:26:22;;;;;;;1.37;1.00;;;11.80;86.80;;;;;;5012934;28;21022;-48
2021/05/25 03:28:48;;;;;;;1.93;0.90;;;11.80;87.10;;;;;;5011926;28;20688;-48
2021/05/25 03:31:15;;;;;;;4.23;1.10;;;11.80;86.40;;;;;;5011853;28;20671;-48
2021/05/25 03:33:42;;;;;;;1.47;1.37;;;11.80;86.50;;;;;;5012696;28;20627;-47
2021/05/25 03:36:09;;;;;;;1.67;0.80;;;11.80;85.90;;;;;;5012532;28;20729;-47
2021/05/25 03:38:36;;;;;;;2.10;0.90;;;11.80;86.00;;;;;;5013738;28;20655;-48
2021/05/25 03:41:03;;;;;;;3.10;1.17;;;11.80;86.20;;;;;;5012023;28;21235;-48
2021/05/25 03:43:30;;;;;;;1.73;1.20;;;11.80;86.10;;;;;;5007238;28;20642;-48
2021/05/25 03:45:57;;;;;;;1.07;0.87;;;11.80;86.00;;;;;;4999840;28;21192;-48
2021/05/25 03:48:23;;;;;;;2.03;1.93;;;11.80;86.00;;;;;;5012235;28;20687;-48
2021/05/25 03:50:50;;;;;;;2.77;0.93;;;11.80;86.30;;;;;;5011780;28;20651;-49
2021/05/25 03:53:17;;;;;;;2.00;1.00;;;11.80;86.20;;;;;;5012279;28;21276;-49
2021/05/25 03:55:49;;;;;;;2.80;1.20;;;11.80;85.80;;;;;;5012154;28;20694;-49
2021/05/25 04:01:02;;;;;;;3.43;1.00;;;11.80;85.30;;;;;;5009086;28;20685;-49
2021/05/25 04:03:29;;;;;;;3.70;1.17;;;11.80;85.70;;;;;;5008936;28;20990;-49
2021/05/25 04:05:55;;;;;;;3.20;1.13;;;11.80;85.60;;;;;;5011205;28;20694;-49
2021/05/25 04:08:22;;;;;;;1.80;1.07;;;11.70;85.50;;;;;;5010173;28;20682;-49
2021/05/25 04:10:49;;;;;;;3.07;0.90;;;11.70;85.70;;;;;;5016094;28;20662;-49
2021/05/25 04:13:16;;;;;;;0.73;0.73;;;11.70;86.10;;;;;;5011823;28;20682;-48
2021/05/25 04:15:45;;;;;;;0.63;0.57;;;11.70;85.90;;;;;;5011772;28;20663;-49
2021/05/25 04:18:11;;;;;;;4.10;1.17;;;11.70;86.10;;;;;;5011683;28;20659;-49
2021/05/25 04:20:38;;;;;;;3.70;0.90;;;11.60;86.00;;;;;;5011474;28;20725;-49
2021/05/25 04:23:05;;;;;;;3.00;1.30;;;11.60;86.10;;;;;;5012437;28;20692;-49
2021/05/25 04:25:31;;;;;;;1.80;0.70;;;11.60;86.00;;;;;;5011193;28;20960;-49
2021/05/25 04:27:58;;;;;;;1.43;0.80;;;11.70;85.80;;;;;;5011584;28;20664;-48
2021/05/25 04:30:26;;;;;;;1.73;0.73;;;11.70;85.30;;;;;;5011324;28;21081;-48
2021/05/25 04:32:53;;;;;;;2.67;1.40;;;11.80;85.50;;;;;;5009604;28;20743;-48
2021/05/25 04:35:20;;;;;;;4.17;1.23;;;11.80;85.30;;;;;;5010969;28;20719;-49
2021/05/25 04:37:47;;;;;;;2.10;0.97;;;11.80;85.00;;;;;;5012583;28;20652;-49
2021/05/25 04:40:14;;;;;;;1.30;0.70;;;11.90;85.40;;;;;;5010992;28;20698;-49
2021/05/25 04:42:41;;;;;;;1.37;0.87;;;12.00;85.10;;;;;;5011852;28;20631;-49
2021/05/25 04:45:08;;;;;;;3.23;0.90;;;12.00;84.70;;;;;;5011053;28;20771;-49
2021/05/25 04:47:36;;;;;;;2.63;0.87;;;12.10;85.60;;;;;;5010957;28;21183;-49
2021/05/25 04:50:04;;;;;;;2.50;0.80;;;12.10;84.60;;;;;;5011826;28;20663;-48
2021/05/25 04:52:33;;;;;;;2.97;1.17;;;12.10;84.20;;;;;;5011647;28;20631;-49
2021/05/25 04:55:00;;;;;;;0.70;0.50;;;12.10;84.40;;;;;;5011573;28;20628;-49
2021/05/25 04:57:29;;;;;;;1.47;1.00;;;12.10;83.90;;;;;;5010760;28;20666;-49
2021/05/25 04:59:55;;;;;;;1.80;1.00;;;12.00;83.10;;;;;;5011136;28;20706;-50
2021/05/25 05:02:22;;;;;;;1.47;0.67;;;12.00;83.10;;;;;;5010097;28;20651;-50
2021/05/25 05:04:50;;;;;;;1.27;0.63;;;12.00;82.90;;;;;;5010490;28;20628;-50
2021/05/25 05:07:16;;;;;;;2.40;0.97;;;12.00;82.90;;;;;;5010005;28;20672;-50
2021/05/25 05:09:43;;;;;;;2.57;0.80;;;12.10;83.20;;;;;;5010626;28;20688;-49
2021/05/25 05:12:10;;;;;;;2.87;1.10;;;12.10;83.00;;;;;;5010074;28;21050;-47
2021/05/25 05:14:37;;;;;;;1.83;1.40;;;12.20;82.70;;;;;;5009909;28;20644;-49
2021/05/25 05:17:04;;;;;;;4.10;1.30;;;12.20;82.50;;;;;;5009793;28;20710;-51
2021/05/25 05:19:30;;;;;;;1.90;1.00;;;12.30;83.00;;;;;;5010340;28;20621;-48
2021/05/25 05:21:58;;;;;;;7.17;0.80;;;12.30;81.90;;;;;;5008808;28;20652;-49
2021/05/25 05:24:25;;;;;;;4.10;1.23;;;12.30;80.90;;;;;;5009865;28;20704;-49
2021/05/25 05:26:52;;;;;;;3.17;0.97;;;12.30;80.30;;;;;;5010999;28;20683;-51
2021/05/25 05:29:18;;;;;;;0.97;0.70;;;12.20;80.60;;;;;;5009317;28;20675;-50
2021/05/25 05:31:45;;;;;;;1.33;0.70;;;12.30;80.50;;;;;;5004985;28;20631;-49
2021/05/25 05:34:12;;;;;;;2.93;0.80;;;12.20;80.10;;;;;;5010834;28;20667;-52
2021/05/25 05:36:39;;;;;;;0.97;0.70;;;12.30;79.80;;;;;;5011104;28;21001;-48
2021/05/25 05:39:07;;;;;;;1.73;0.60;;;12.20;79.00;;;;;;5010382;28;20685;-48
2021/05/25 05:41:33;;;;;;;1.43;0.67;;;12.00;78.60;;;;;;5010581;28;20639;-50
2021/05/25 05:44:00;;;;;;;1.90;0.67;;;12.00;79.30;;;;;;5009744;28;20620;-49
2021/05/25 05:46:27;;;;;;;2.70;1.20;;;11.90;79.50;;;;;;5010791;28;20702;-51
2021/05/25 05:48:54;;;;;;;1.37;0.60;;;11.80;80.10;;;;;;5009479;28;21278;-50
2021/05/25 05:51:22;;;;;;;0.60;0.60;;;11.90;80.60;;;;;;5010158;28;20624;-49
2021/05/25 05:53:49;;;;;;;3.00;1.60;;;11.90;79.70;;;;;;5009531;28;20750;-49
2021/05/25 05:56:17;;;;;;;2.70;1.17;;;12.00;79.90;;;;;;5009868;28;20687;-49
2021/05/25 05:58:44;;;;;;;0.70;0.70;;;12.00;79.90;;;;;;5008945;28;20945;-49
2021/05/25 06:01:11;;;;;;;1.90;0.50;;;12.00;80.00;;;;;;5009350;28;20662;-49
2021/05/25 06:03:38;;;;;;;2.50;1.00;;;11.90;80.30;;;;;;5009828;28;20628;-49
2021/05/25 06:06:05;;;;;;;3.77;0.70;;;11.90;81.10;;;;;;5009976;28;20692;-49
2021/05/25 06:08:32;;;;;;;2.20;0.83;;;11.90;81.00;;;;;;5009350;28;21160;-49
2021/05/25 06:10:59;;;;;;;1.40;0.77;;;11.90;81.00;;;;;;5009666;28;20627;-48
2021/05/25 06:13:26;;;;;;;1.17;0.60;;;11.90;81.60;;;;;;5009631;28;21164;-49
2021/05/25 06:15:56;;;;;;;0.87;0.70;;;11.90;81.80;;;;;;5009931;28;20671;-49
2021/05/25 06:18:23;;;;;;;0.80;0.60;;;11.90;82.00;;;;;;5009100;28;20672;-49
2021/05/25 06:20:49;;;;;;;1.13;0.70;;;11.90;82.20;;;;;;5008634;28;20695;-48
2021/05/25 06:23:16;;;;;;;1.20;0.80;;;11.90;82.90;;;;;;5008504;28;20668;-49
2021/05/25 06:25:43;;;;;;;1.50;1.40;;;11.90;83.50;;;;;;5009899;28;21259;-49
2021/05/25 06:28:09;;;;;;;3.60;0.90;;;12.00;83.70;;;;;;5009510;28;20668;-48
2021/05/25 06:30:38;;;;;;;1.10;0.70;;;11.90;83.90;;;;;;5010107;28;20692;-49
2021/05/25 06:33:05;;;;;;;3.90;1.40;;;11.80;84.00;;;;;;5009740;28;20624;-48
2021/05/25 06:35:33;;;;;;;3.30;0.63;;;11.90;84.40;;;;;;5009598;28;20686;-48
2021/05/25 06:38:00;;;;;;;3.03;1.10;;;11.90;84.30;;;;;;5009578;28;20655;-49
2021/05/25 06:40:27;;;;;;;1.13;0.60;;;12.00;84.60;;;;;;5010338;28;20723;-49
2021/05/25 06:42:53;;;;;;;4.83;0.50;;;12.00;84.10;;;;;;5010152;28;20655;-48
2021/05/25 06:45:20;;;;;;;1.13;0.73;;;11.90;83.90;;;;;;5009676;28;21304;-50
2021/05/25 06:47:48;;;;;;;1.10;0.47;;;11.90;85.30;;;;;;5009388;28;21168;-49
2021/05/25 06:50:15;;;;;;;1.00;0.63;;;11.80;86.20;;;;;;5009107;28;20687;-48
2021/05/25 06:52:42;;;;;;;0.90;0.70;;;11.80;86.60;;;;;;5009364;28;20664;-49
2021/05/25 06:55:11;;;;;;;0.73;0.70;;;11.60;86.90;;;;;;5010071;28;20695;-49
2021/05/25 06:57:37;;;;;;;1.13;0.67;;;11.50;87.10;;;;;;5011850;28;20648;-48
2021/05/25 07:00:05;;;;;;;0.60;0.47;;;11.60;87.70;;;;;;5013959;28;20766;-48
2021/05/25 07:02:32;;;;;;;2.47;1.13;;;11.50;87.60;;;;;;5013095;28;20667;-48
2021/05/25 07:05:00;;;;;;;0.80;0.60;;;11.60;87.70;;;;;;5013216;28;20690;-49
2021/05/25 07:07:26;;;;;;;0.70;0.70;;;11.70;87.20;;;;;;5013623;28;20661;-48
2021/05/25 07:09:53;;;;;;;7.53;1.40;;;11.70;88.00;;;;;;5013322;28;20691;-49
2021/05/25 07:12:20;;;;;;;1.03;0.47;;;11.70;87.30;;;;;;5013114;28;20666;-48
2021/05/25 07:14:47;;;;;;;2.00;0.53;;;11.80;88.00;;;;;;5013640;28;20664;-49
2021/05/25 07:17:13;;;;;;;1.50;0.70;;;11.90;87.40;;;;;;5013081;28;20651;-49
2021/05/25 07:19:40;;;;;;;3.43;0.70;;;11.90;86.80;;;;;;5012873;28;20656;-49
2021/05/25 07:22:08;;;;;;;1.13;0.70;;;11.90;86.30;;;;;;5013014;28;20667;-48
2021/05/25 07:24:35;;;;;;;0.63;0.50;;;11.90;86.20;;;;;;5013501;28;20969;-48
2021/05/25 07:27:01;;;;;;;2.60;1.00;;;11.90;85.90;;;;;;5013457;28;20751;-49
2021/05/25 07:29:28;;;;;;;0.60;0.60;;;11.90;85.50;;;;;;5012641;28;20741;-49
2021/05/25 07:31:55;;;;;;;2.20;1.00;;;11.80;85.60;;;;;;5012920;28;20686;-49
2021/05/25 07:34:22;;;;;;;0.70;0.50;;;11.90;85.90;;;;;;5010819;28;20675;-49
2021/05/25 07:36:48;;;;;;;1.13;0.60;;;12.00;85.90;;;;;;5012697;28;20670;-49
2021/05/25 07:39:16;;;;;;;2.13;0.90;;;11.90;85.70;;;;;;5012321;28;20731;-49
2021/05/25 07:41:43;;;;;;;0.83;0.57;;;11.80;85.80;;;;;;5012358;28;20662;-49
2021/05/25 07:44:10;;;;;;;1.00;0.70;;;11.80;86.40;;;;;;5012906;28;20743;-49
2021/05/25 07:46:37;;;;;;;0.73;0.53;;;11.90;86.50;;;;;;5012343;28;20690;-49
2021/05/25 07:49:04;;;;;;;1.10;0.60;;;12.00;85.90;;;;;;5012444;28;20682;-49
2021/05/25 07:51:31;;;;;;;1.90;1.00;;;12.10;85.10;;;;;;5012781;28;20670;-49
2021/05/25 07:53:58;;;;;;;0.40;0.30;;;12.00;84.90;;;;;;5012752;28;20658;-49
2021/05/25 07:56:25;;;;;;;0.90;0.90;;;12.00;85.60;;;;;;5012242;28;21311;-49
2021/05/25 07:58:53;;;;;;;0.83;0.70;;;11.70;86.70;;;;;;5012032;28;20662;-49
2021/05/25 08:01:20;;;;;;;2.80;0.87;;;11.70;87.90;;;;;;5012068;28;20921;-49
2021/05/25 08:03:47;;;;;;;0.90;0.50;;;11.70;89.50;;;;;;5010191;28;21181;-49
2021/05/25 08:06:14;;;;;;;4.00;1.60;;;11.80;90.10;;;;;;5012421;28;21331;-49
2021/05/25 08:08:41;;;;;;;1.13;0.63;;;11.80;90.00;;;;;;5011360;28;20673;-51
2021/05/25 08:11:12;;;;;;;0.67;0.57;;;11.70;89.70;;;;;;5012253;28;20735;-50
2021/05/25 08:13:40;;;;;;;3.60;0.70;;;11.70;90.10;;;;;;5012151;28;21188;-50
2021/05/25 08:16:08;;;;;;;0.80;0.60;;;11.80;90.20;;;;;;5011809;28;20691;-50
2021/05/25 08:21:22;;;;;;;1.33;0.70;;;11.80;89.70;;;;;;5008458;28;20624;-49
2021/05/25 08:23:48;;;;;;;3.57;0.80;;;11.80;90.00;;;;;;5011689;28;20654;-49
2021/05/25 08:26:15;;;;;;;0.60;0.40;;;11.80;89.90;;;;;;5011585;28;20998;-50
2021/05/25 08:28:43;;;;;;;0.77;0.50;;;11.80;89.60;;;;;;5011901;28;21180;-50
2021/05/25 08:31:09;;;;;;;0.80;0.60;;;11.90;88.90;;;;;;5011462;28;20710;-49
2021/05/25 08:33:36;;;;;;;0.80;0.60;;;11.90;89.10;;;;;;5011538;28;20636;-50
2021/05/25 08:36:04;;;;;;;0.60;0.40;;;12.00;88.00;;;;;;5011157;28;20687;-50
2021/05/25 08:38:31;;;;;;;1.07;0.60;;;12.00;87.60;;;;;;5011062;28;20619;-50
2021/05/25 08:40:58;;;;;;;0.80;0.53;;;12.10;87.70;;;;;;5011285;28;20621;-49
2021/05/25 08:43:24;;;;;;;1.53;0.53;;;12.00;87.40;;;;;;5011196;28;20691;-50
2021/05/25 08:45:52;;;;;;;1.10;0.50;;;12.10;87.60;;;;;;5011612;28;20687;-49
2021/05/25 08:48:19;;;;;;;0.50;0.40;;;12.10;87.20;;;;;;5011005;28;21235;-49
2021/05/25 08:50:46;;;;;;;2.73;0.53;;;12.00;87.20;;;;;;5011814;28;21083;-50
2021/05/25 08:53:13;;;;;;;0.80;0.80;;;11.90;88.10;;;;;;5011000;28;20694;-49
2021/05/25 08:55:41;;;;;;;0.50;0.40;;;12.00;88.60;;;;;;5011179;28;20695;-48
2021/05/25 08:58:08;;;;;;;0.83;0.47;;;12.00;88.10;;;;;;5011007;28;20636;-48
2021/05/25 09:00:35;;;;;;;1.33;0.70;;;12.00;87.70;;;;;;5011278;28;20654;-48
2021/05/25 09:03:02;;;;;;;0.50;0.50;;;12.00;87.50;;;;;;5011147;28;20640;-49
2021/05/25 09:05:29;;;;;;;0.73;0.70;;;12.10;87.10;;;;;;5010639;28;20703;-49
2021/05/25 09:07:56;;;;;;;0.47;0.33;;;12.10;87.40;;;;;;5010841;28;21157;-50
2021/05/25 09:10:24;;;;;;;0.50;0.30;;;12.10;87.20;;;;;;5011318;28;20707;-48
2021/05/25 09:12:52;;;;;;;2.30;0.50;;;12.10;87.30;;;;;;5010918;28;21003;-50
2021/05/25 09:15:31;;;;;;;0.87;0.60;;;12.20;87.00;;;;;;5011219;28;20688;-49
2021/05/25 09:18:05;;;;;;;0.60;0.50;;;12.00;87.80;;;;;;5010914;28;20670;-50
2021/05/25 09:20:43;;;;;;;0.63;0.63;;;12.10;88.30;;;;;;5010143;28;20646;-49
2021/05/25 09:23:12;;;;;;;1.30;0.67;;;12.10;88.40;;;;;;5011278;28;20689;-49
2021/05/25 09:25:50;;;;;;;1.40;0.73;;;12.20;88.60;;;;;;5011057;28;20702;-50
2021/05/25 09:28:17;;;;;;;0.83;0.80;;;12.40;88.20;;;;;;5010639;28;20623;-50
2021/05/25 09:30:46;;;;;;;1.80;0.60;;;12.50;87.60;;;;;;5010706;28;21016;-49
2021/05/25 09:33:14;;;;;;;1.10;0.87;;;12.50;86.70;;;;;;5010768;28;21156;-49
2021/05/25 09:35:41;;;;;;;2.10;1.27;;;12.40;86.60;;;;;;5010827;28;20709;-49
2021/05/25 09:38:09;;;;;;;0.80;0.60;;;12.50;86.90;;;;;;5010652;28;20639;-49
2021/05/25 09:40:40;;;;;;;0.80;0.70;;;12.60;86.80;;;;;;5011088;28;21002;-49
2021/05/25 09:43:15;;;;;;;0.60;0.50;;;12.60;86.60;;;;;;5010974;28;20632;-50
2021/05/25 09:45:55;;;;;;;3.37;0.73;;;12.60;86.30;;;;;;5011066;28;20701;-49
2021/05/25 09:48:23;;;;;;;1.00;0.60;;;12.50;86.50;;;;;;5010621;28;20635;-50
2021/05/25 09:50:49;;;;;;;1.23;1.13;;;12.40;86.40;;;;;;5010549;28;20808;-49
2021/05/25 09:53:20;;;;;;;2.73;0.63;;;12.40;86.80;;;;;;5010921;28;20622;-50
2021/05/25 09:55:49;;;;;;;0.60;0.50;;;12.40;86.70;;;;;;5010571;28;20970;-50
2021/05/25 09:58:15;;;;;;;0.67;0.50;;;12.30;86.30;;;;;;5010320;28;20631;-49
2021/05/25 10:00:45;;;;;;;1.47;0.60;;;12.30;86.40;;;;;;5010717;28;21145;-49
2021/05/25 10:03:15;;;;;;;0.50;0.50;;;12.30;86.20;;;;;;5010343;28;20647;-50
2021/05/25 10:05:45;;;;;;;0.60;0.40;;;12.30;86.10;;;;;;5010499;28;20699;-48
2021/05/25 10:08:12;;;;;;;0.50;0.43;;;12.30;86.10;;;;;;5008354;28;20782;-48
2021/05/25 10:10:39;;;;;;;0.50;0.50;;;12.30;86.00;;;;;;5010209;28;20693;-48
2021/05/25 10:13:06;;;;;;;0.50;0.50;;;12.30;86.80;;;;;;5009688;28;20671;-48
2021/05/25 10:15:32;;;;;;;1.50;0.60;;;12.30;86.40;;;;;;5009840;28;20657;-48
2021/05/25 10:18:34;;;;;;;0.60;0.53;;;12.40;86.20;;;;;;5010002;28;20636;-48
2021/05/25 10:21:04;;;;;;;2.90;0.47;;;12.30;86.10;;;;;;5009801;28;21039;-48
2021/05/25 10:23:33;;;;;;;2.87;0.73;;;12.30;86.80;;;;;;5010216;28;20631;-49
2021/05/25 10:26:02;;;;;;;1.90;0.67;;;12.40;87.00;;;;;;5009950;28;20662;-49
2021/05/25 10:28:28;;;;;;;1.10;0.77;;;12.40;87.40;;;;;;5010186;28;20700;-48
2021/05/25 10:30:57;;;;;;;0.60;0.60;;;12.30;86.80;;;;;;5010005;28;21081;-49
2021/05/25 10:33:31;;;;;;;1.63;0.90;;;12.30;87.60;;;;;;5009805;28;20660;-49
2021/05/25 10:36:09;;;;;;;0.87;0.60;;;12.40;87.50;;;;;;5009879;28;20749;-48
2021/05/25 10:38:55;;;;;;;1.90;0.77;;;12.40;88.20;;;;;;5009817;28;21242;-48
2021/05/25 10:41:31;;;;;;;1.23;0.93;;;12.40;88.60;;;;;;5010420;28;20682;-48
2021/05/25 10:43:58;;;;;;;1.80;0.97;;;12.40;88.20;;;;;;5010671;28;20625;-48
2021/05/25 10:46:28;;;;;;;3.23;1.13;;;12.50;88.40;;;;;;5010064;28;20758;-48
2021/05/25 10:49:12;;;;;;;1.97;0.97;;;12.50;88.40;;;;;;5009331;28;20620;-48
2021/05/25 10:52:12;;;;;;;2.70;1.10;;;12.60;87.70;;;;;;5008855;28;20693;-48
2021/05/25 10:54:56;;;;;;;3.30;1.23;;;12.60;87.40;;;;;;5009684;28;20665;-49
2021/05/25 10:57:36;;;;;;;3.43;0.50;;;12.60;86.90;;;;;;5009608;28;20725;-48
2021/05/25 11:00:05;;;;;;;2.77;1.20;;;12.60;87.10;;;;;;5009663;28;20719;-48
2021/05/25 11:02:52;;;;;;;2.57;1.37;;;12.50;87.10;;;;;;5010011;28;20646;-49
2021/05/25 11:05:54;;;;;;;2.40;1.10;;;12.60;87.40;;;;;;5009508;28;20658;-49
2021/05/25 11:08:39;;;;;;;1.00;1.00;;;12.60;87.10;;;;;;5009135;28;20620;-50
2021/05/25 11:11:09;;;;;;;2.70;1.20;;;12.80;86.60;;;;;;5009694;28;20737;-49
2021/05/25 11:13:37;;;;;;;2.20;0.83;;;12.80;86.20;;;;;;5009570;28;20627;-49
2021/05/25 11:16:07;;;;;;;2.20;0.90;;;12.90;85.70;;;;;;5009744;28;20722;-50
2021/05/25 11:18:37;;;;;;;0.97;0.60;;;12.90;85.60;;;;;;5009041;28;20666;-49
2021/05/25 11:21:19;;;;;;;2.57;0.87;;;12.90;85.70;;;;;;5009866;28;20655;-49
2021/05/25 11:23:46;;;;;;;1.30;1.20;;;12.90;84.20;;;;;;5009784;28;20685;-50
2021/05/25 11:26:46;;;;;;;3.97;1.40;;;12.90;82.80;;;;;;5009313;28;20994;-49
2021/05/25 11:29:18;;;;;;;3.47;1.00;;;12.90;83.30;;;;;;5005921;28;20667;-50
2021/05/25 11:31:45;;;;;;;0.80;0.60;;;13.00;83.30;;;;;;5009505;28;20674;-50
2021/05/25 11:34:11;;;;;;;1.33;1.17;;;13.10;83.10;;;;;;5009420;28;21248;-50
2021/05/25 11:36:38;;;;;;;3.27;1.73;;;13.10;82.50;;;;;;5009084;28;20663;-50
2021/05/25 11:39:06;;;;;;;1.10;0.90;;;13.10;82.80;;;;;;5009540;28;20721;-49
2021/05/25 11:41:33;;;;;;;4.07;1.20;;;13.10;82.80;;;;;;5009368;28;20628;-48
2021/05/25 11:44:04;;;;;;;4.70;2.10;;;13.10;82.60;;;;;;5012688;28;20661;-49
2021/05/25 11:46:42;;;;;;;3.90;1.17;;;13.00;84.10;;;;;;5013244;28;20710;-49
2021/05/25 11:49:09;;;;;;;1.67;1.00;;;12.90;86.40;;;;;;5012815;28;20655;-50
2021/05/25 11:51:36;;;;;;;2.50;1.20;;;12.90;86.50;;;;;;5013172;28;20705;-49
2021/05/25 11:54:14;;;;;;;3.20;1.63;;;12.80;86.60;;;;;;5013635;28;20663;-48
2021/05/25 11:56:44;;;;;;;1.70;1.60;;;12.90;86.50;;;;;;5012838;28;20687;-49
2021/05/25 11:59:18;;;;;;;1.63;0.90;;;12.90;85.20;;;;;;5012709;28;20683;-48
2021/05/25 12:01:47;;;;;;;3.43;1.40;;;13.00;83.30;;;;;;5012649;28;20643;-49
2021/05/25 12:04:14;;;;;;;2.57;1.20;;;13.10;80.00;;;;;;5013035;28;20647;-49
2021/05/25 12:06:52;;;;;;;5.50;0.90;;;13.20;79.20;;;;;;5012689;28;20695;-49
2021/05/25 12:09:20;;;;;;;0.80;0.80;;;13.30;79.00;;;;;;5012157;28;20996;-49
2021/05/25 12:11:47;;;;;;;2.00;1.40;;;13.40;77.10;;;;;;5012581;28;20694;-49
2021/05/25 12:14:15;;;;;;;6.80;1.13;;;13.50;75.60;;;;;;5013029;28;20690;-50
2021/05/25 12:16:42;;;;;;;6.97;2.07;;;13.50;74.70;;;;;;5013050;28;20813;-49
2021/05/25 12:19:11;;;;;;;2.30;1.13;;;13.60;73.60;;;;;;5012173;28;20650;-49
2021/05/25 12:21:38;;;;;;;2.30;0.80;;;13.60;72.70;;;;;;5011902;28;20656;-48
2021/05/25 12:24:06;;;;;;;3.33;1.27;;;13.70;75.00;;;;;;5012653;28;20719;-49
2021/05/25 12:26:46;;;;;;;7.23;1.37;;;13.70;80.00;;;;;;5011679;28;20766;-49
2021/05/25 12:29:15;;;;;;;1.10;1.00;;;13.60;81.90;;;;;;5012708;28;20666;-51
2021/05/25 12:31:42;;;;;;;2.13;1.37;;;13.60;82.50;;;;;;5010503;28;21012;-49
2021/05/25 12:34:09;;;;;;;2.13;1.80;;;13.70;82.50;;;;;;5012492;28;20669;-49
2021/05/25 12:36:52;;;;;;;1.50;1.03;;;14.00;82.80;;;;;;5011765;28;20742;-49
2021/05/25 12:39:26;;;;;;;1.30;1.17;;;14.40;78.50;;;;;;5011729;28;20650;-50
2021/05/25 12:41:54;;;;;;;3.13;1.30;;;14.60;71.40;;;;;;5011673;28;20620;-49
2021/05/25 12:44:27;;;;;;;1.63;1.20;;;15.10;70.00;;;;;;5011499;28;20686;-48
2021/05/25 12:46:54;;;;;;;1.20;1.10;;;15.30;67.90;;;;;;5011475;28;20683;-48
2021/05/25 12:49:29;;;;;;;5.13;1.40;;;15.30;66.80;;;;;;5011076;28;20632;-48
2021/05/25 12:52:21;;;;;;;3.47;1.90;;;15.20;66.40;;;;;;5010919;28;20733;-48
2021/05/25 12:54:52;;;;;;;3.17;1.50;;;15.20;65.60;;;;;;5010074;28;20631;-48
2021/05/25 12:57:19;;;;;;;8.73;2.03;;;15.10;64.90;;;;;;5010719;28;20723;-49
2021/05/25 12:59:45;;;;;;;2.87;0.97;;;15.20;63.50;;;;;;5011319;28;20652;-47